Time;durP1;ratioP1;P1;durP2;ratioP2;P2;SDS_P1;SDS_P2;PMS_P1;PMS_P2;Temp;Humidity;BMP_temperature;BMP_pressure;BME280_temperature;BME280_humidity;BME280_pressure;Samples;Min_cycle;Max_cycle;Signal;HPM_P1;HPM_P2
2022/09/07 00:00:48;;;;;;;1.10;1.00;;;;;;;;;;4879912;29;20185;-81
2022/09/07 00:03:14;;;;;;;3.57;2.20;;;;;;;;;;4877910;29;20189;-81
2022/09/07 00:05:45;;;;;;;1.00;0.87;;;7.60;99.90;;;;;;4880045;29;20182;-81
2022/09/07 00:08:11;;;;;;;0.70;0.60;;;7.50;99.90;;;;;;4880274;29;20181;-80
2022/09/07 00:10:38;;;;;;;1.13;0.70;;;7.50;99.90;;;;;;4878929;29;20353;-80
2022/09/07 00:13:05;;;;;;;1.03;1.03;;;7.50;99.90;;;;;;4879489;29;20189;-81
2022/09/07 00:15:31;;;;;;;0.73;0.73;;;;;;;;;;4878845;29;20579;-81
2022/09/07 00:17:57;;;;;;;1.07;0.97;;;;;;;;;;4879372;29;20230;-80
2022/09/07 00:20:24;;;;;;;1.60;1.13;;;;;;;;;;4878821;29;20194;-80
2022/09/07 00:22:50;;;;;;;1.40;0.77;;;;;;;;;;4878866;29;20186;-80
2022/09/07 00:25:16;;;;;;;1.30;1.20;;;;;;;;;;4878353;29;20186;-81
2022/09/07 00:27:42;;;;;;;1.60;0.90;;;;;;;;;;4877567;29;20182;-80
2022/09/07 00:30:08;;;;;;;1.27;0.90;;;7.50;99.90;;;;;;4880109;29;20709;-80
2022/09/07 00:32:34;;;;;;;0.63;0.63;;;;;;;;;;4878512;29;20202;-80
2022/09/07 00:35:00;;;;;;;0.50;0.50;;;;;;;;;;4879778;29;20631;-81
2022/09/07 00:37:26;;;;;;;0.90;0.90;;;;;;;;;;4877826;29;20723;-81
2022/09/07 00:39:52;;;;;;;2.00;1.13;;;;;;;;;;4878478;29;20197;-80
2022/09/07 00:42:20;;;;;;;1.20;1.07;;;7.20;99.90;;;;;;4863114;29;20568;-80
2022/09/07 00:44:58;;;;;;;0.90;0.80;;;7.40;99.90;;;;;;4879403;29;20562;-80
2022/09/07 00:48:05;;;;;;;1.63;1.53;;;6.80;99.90;;;;;;4879435;29;20186;-81
2022/09/07 00:50:39;;;;;;;0.60;0.60;;;7.40;99.90;;;;;;4822245;29;20262;-80
2022/09/07 00:53:18;;;;;;;0.80;0.80;;;7.20;99.90;;;;;;4873869;29;20682;-80
2022/09/07 00:55:48;;;;;;;1.63;1.23;;;7.10;99.90;;;;;;4879154;29;20570;-80
2022/09/07 00:58:14;;;;;;;3.27;1.30;;;;;;;;;;4878912;29;20721;-81
2022/09/07 01:00:42;;;;;;;2.60;0.77;;;7.10;99.90;;;;;;4878069;29;20336;-81
2022/09/07 01:03:10;;;;;;;1.93;1.20;;;7.10;99.90;;;;;;4879100;29;20220;-82
2022/09/07 01:05:54;;;;;;;1.33;1.03;;;7.10;99.90;;;;;;4879515;29;20185;-82
2022/09/07 01:08:20;;;;;;;0.80;0.80;;;7.00;99.90;;;;;;4877770;29;20182;-81
2022/09/07 01:10:46;;;;;;;3.33;2.17;;;;;;;;;;4877964;29;20218;-81
2022/09/07 01:13:13;;;;;;;1.67;1.13;;;;;;;;;;4879571;29;20205;-81
2022/09/07 01:16:10;;;;;;;1.07;0.80;;;6.90;99.90;;;;;;4878493;29;20269;-83
2022/09/07 01:18:36;;;;;;;1.27;1.20;;;;;;;;;;4879497;29;20181;-82
2022/09/07 01:21:17;;;;;;;3.57;0.93;;;6.90;99.90;;;;;;4879068;29;20189;-81
2022/09/07 01:24:14;;;;;;;0.70;0.70;;;6.60;99.90;;;;;;4878217;29;20194;-81
2022/09/07 01:26:58;;;;;;;0.67;0.67;;;6.80;99.90;;;;;;4886707;29;20190;-82
2022/09/07 01:30:09;;;;;;;0.80;0.80;;;6.70;99.90;;;;;;4888800;29;20209;-82
2022/09/07 01:32:43;;;;;;;0.50;0.50;;;6.70;99.90;;;;;;4872718;29;20213;-81
2022/09/07 01:35:33;;;;;;;0.60;0.60;;;6.70;99.90;;;;;;4884283;29;20193;-82
2022/09/07 01:38:22;;;;;;;0.80;0.80;;;6.70;99.90;;;;;;4879266;29;20193;-81
2022/09/07 01:41:12;;;;;;;0.43;0.43;;;6.70;99.90;;;;;;4879017;29;20166;-81
2022/09/07 01:43:48;;;;;;;1.03;0.90;;;6.70;99.90;;;;;;4878056;29;20204;-81
2022/09/07 01:46:30;;;;;;;7.73;1.13;;;6.60;99.90;;;;;;4879005;29;20178;-82
2022/09/07 01:49:12;;;;;;;1.40;1.30;;;6.50;99.90;;;;;;4880729;29;20184;-81
2022/09/07 01:51:45;;;;;;;0.70;0.70;;;6.60;99.90;;;;;;4881433;29;20178;-81
2022/09/07 01:54:23;;;;;;;0.93;0.93;;;6.60;99.90;;;;;;4882901;29;20203;-82
2022/09/07 01:56:51;;;;;;;1.33;1.23;;;6.50;99.90;;;;;;4881377;29;20261;-82
2022/09/07 01:59:54;;;;;;;0.60;0.60;;;6.50;99.90;;;;;;4882574;29;20181;-82
2022/09/07 02:02:25;;;;;;;0.90;0.90;;;6.50;99.90;;;;;;4882783;29;20185;-82
2022/09/07 02:05:40;;;;;;;1.50;1.03;;;6.50;99.90;;;;;;4882411;29;20188;-82
2022/09/07 02:08:16;;;;;;;0.67;0.67;;;6.50;99.90;;;;;;4882031;29;20181;-81
2022/09/07 02:10:49;;;;;;;0.67;0.67;;;6.40;99.90;;;;;;4882462;29;20216;-81
2022/09/07 02:13:25;;;;;;;2.17;1.00;;;6.50;99.90;;;;;;4881183;29;20216;-81
2022/09/07 02:16:00;;;;;;;0.70;0.70;;;6.30;99.90;;;;;;4882356;29;20514;-80
2022/09/07 02:18:32;;;;;;;1.20;1.03;;;6.30;99.90;;;;;;4882312;29;20188;-81
2022/09/07 02:20:59;;;;;;;2.33;1.13;;;;;;;;;;4882076;29;20178;-81
2022/09/07 02:23:29;;;;;;;11.73;1.37;;;6.20;99.90;;;;;;4880884;29;20587;-82
2022/09/07 02:26:18;;;;;;;0.70;0.70;;;6.30;99.90;;;;;;4882068;29;20193;-80
2022/09/07 02:28:44;;;;;;;1.40;1.30;;;;;;;;;;4882141;29;20205;-81
2022/09/07 02:31:11;;;;;;;4.13;1.67;;;;;;;;;;4881774;29;20228;-82
2022/09/07 02:33:37;;;;;;;1.17;1.17;;;;;;;;;;4882058;29;20269;-81
2022/09/07 02:36:04;;;;;;;1.60;1.23;;;6.20;99.90;;;;;;4880597;29;20214;-82
2022/09/07 02:38:30;;;;;;;0.80;0.80;;;6.20;99.90;;;;;;4865404;29;20227;-81
2022/09/07 02:40:58;;;;;;;0.70;0.70;;;6.10;99.90;;;;;;4881552;29;20245;-81
2022/09/07 02:43:25;;;;;;;1.13;1.13;;;6.20;99.90;;;;;;4881930;29;20241;-81
2022/09/07 02:46:22;;;;;;;0.57;0.57;;;5.90;99.90;;;;;;4881507;29;20185;-81
2022/09/07 02:48:48;;;;;;;0.50;0.50;;;;;;;;;;4881071;29;20269;-81
2022/09/07 02:51:26;;;;;;;1.20;0.83;;;6.20;99.90;;;;;;4881508;29;20269;-81
2022/09/07 02:54:13;;;;;;;0.60;0.60;;;5.90;99.90;;;;;;4881513;29;20212;-82
2022/09/07 02:57:19;;;;;;;0.87;0.73;;;6.20;99.90;;;;;;4881763;29;20237;-81
2022/09/07 02:59:51;;;;;;;0.80;0.80;;;6.10;99.90;;;;;;4879699;29;20215;-81
2022/09/07 03:02:17;;;;;;;1.07;1.07;;;;;;;;;;4881629;29;20210;-81
2022/09/07 03:05:20;;;;;;;0.60;0.60;;;6.10;99.90;;;;;;4881434;29;20224;-81
2022/09/07 03:08:03;;;;;;;0.47;0.47;;;6.10;99.90;;;;;;4881793;29;20286;-82
2022/09/07 03:10:29;;;;;;;1.10;1.00;;;6.00;99.90;;;;;;4881584;29;20202;-81
2022/09/07 03:12:55;;;;;;;1.97;1.30;;;;;;;;;;4879910;29;20186;-81
2022/09/07 03:15:25;;;;;;;1.43;1.27;;;6.10;99.90;;;;;;4881743;29;20174;-81
2022/09/07 03:17:51;;;;;;;2.03;1.30;;;;;;;;;;4880046;29;20201;-81
2022/09/07 03:20:18;;;;;;;1.20;1.13;;;;;;;;;;4881447;29;20205;-81
2022/09/07 03:22:45;;;;;;;0.80;0.80;;;6.00;99.90;;;;;;4881219;29;20273;-82
2022/09/07 03:25:11;;;;;;;4.37;4.00;;;;;;;;;;4880930;29;20694;-82
2022/09/07 03:27:37;;;;;;;1.57;1.47;;;;;;;;;;4881139;29;20254;-81
2022/09/07 03:30:08;;;;;;;1.63;1.17;;;6.20;99.90;;;;;;4880873;29;20293;-81
2022/09/07 03:32:36;;;;;;;1.23;1.13;;;5.80;99.90;;;;;;4879850;29;20190;-81
2022/09/07 03:35:02;;;;;;;1.70;0.90;;;;;;;;;;4876071;29;20719;-82
2022/09/07 03:37:28;;;;;;;1.47;1.40;;;;;;;;;;4872510;29;20213;-80
2022/09/07 03:39:54;;;;;;;0.57;0.57;;;;;;;;;;4871270;29;20231;-81
2022/09/07 03:42:20;;;;;;;1.10;1.10;;;6.00;99.90;;;;;;4878981;29;20198;-81
2022/09/07 03:44:48;;;;;;;3.83;1.83;;;;;;;;;;4878134;29;20198;-80
2022/09/07 03:47:14;;;;;;;1.80;0.93;;;;;;;;;;4877806;29;20190;-80
2022/09/07 03:49:40;;;;;;;1.90;1.33;;;;;;;;;;4879021;29;20232;-80
2022/09/07 03:52:06;;;;;;;1.47;1.27;;;;;;;;;;4876830;29;20206;-80
2022/09/07 03:54:32;;;;;;;1.33;1.33;;;;;;;;;;4873506;29;20190;-81
2022/09/07 03:56:57;;;;;;;1.17;1.03;;;5.90;99.90;;;;;;4878341;29;20770;-80
2022/09/07 03:59:23;;;;;;;4.10;1.87;;;;;;;;;;4877676;29;20210;-81
2022/09/07 04:01:49;;;;;;;1.93;1.80;;;;;;;;;;4876568;29;20571;-81
2022/09/07 04:04:15;;;;;;;1.50;1.40;;;;;;;;;;4877999;29;20209;-81
2022/09/07 04:06:42;;;;;;;1.07;1.07;;;;;;;;;;4878426;29;20652;-81
2022/09/07 04:09:11;;;;;;;1.50;1.40;;;5.60;99.90;;;;;;4877112;29;20254;-81
2022/09/07 04:11:39;;;;;;;1.47;1.20;;;;;;;;;;4876446;29;20560;-81
2022/09/07 04:14:05;;;;;;;5.70;1.93;;;;;;;;;;4861342;29;20600;-81
2022/09/07 04:16:31;;;;;;;1.20;1.10;;;;;;;;;;4875549;29;20217;-81
2022/09/07 04:18:57;;;;;;;1.40;1.33;;;;;;;;;;4877797;29;20678;-81
2022/09/07 04:21:26;;;;;;;1.87;1.77;;;5.80;99.90;;;;;;4878390;29;20562;-81
2022/09/07 04:23:52;;;;;;;2.13;1.47;;;;;;;;;;4878342;29;20277;-81
2022/09/07 04:26:27;;;;;;;1.80;1.37;;;6.10;99.90;;;;;;4875958;29;20190;-81
2022/09/07 04:28:53;;;;;;;1.03;1.03;;;;;;;;;;4878247;29;20185;-81
2022/09/07 04:31:20;;;;;;;2.30;1.80;;;5.90;99.90;;;;;;4878000;29;20348;-81
2022/09/07 04:33:47;;;;;;;2.40;1.03;;;6.00;99.90;;;;;;4875886;29;20205;-81
2022/09/07 04:36:13;;;;;;;4.80;2.00;;;;;;;;;;4866781;29;20198;-82
2022/09/07 04:38:39;;;;;;;4.30;1.70;;;;;;;;;;4864885;29;20335;-83
2022/09/07 04:41:16;;;;;;;1.53;1.43;;;6.10;99.90;;;;;;4867362;29;20195;-81
2022/09/07 04:43:43;;;;;;;2.43;2.23;;;6.10;99.90;;;;;;4888619;29;20227;-82
2022/09/07 04:46:18;;;;;;;1.50;1.23;;;6.10;99.90;;;;;;4874315;29;20194;-82
2022/09/07 04:48:47;;;;;;;2.13;1.97;;;;;;;;;;4869631;29;20217;-81
2022/09/07 04:51:14;;;;;;;1.23;1.17;;;6.30;99.90;;;;;;4869901;29;20224;-82
2022/09/07 04:53:40;;;;;;;1.73;1.57;;;;;;;;;;4875558;29;20209;-82
2022/09/07 04:56:05;;;;;;;1.50;1.27;;;6.30;99.90;;;;;;4875713;29;20201;-82
2022/09/07 04:58:31;;;;;;;1.47;1.37;;;;;;;;;;4870742;29;20245;-81
2022/09/07 05:01:02;;;;;;;1.77;1.67;;;6.70;99.90;;;;;;4871257;29;20337;-81
2022/09/07 05:03:29;;;;;;;3.23;1.87;;;6.90;99.90;;;;;;4877681;29;20233;-83
2022/09/07 05:05:55;;;;;;;2.33;2.13;;;;;;;;;;4862597;29;20673;-82
2022/09/07 05:08:21;;;;;;;2.47;2.23;;;;;;;;;;4879227;29;20206;-82
2022/09/07 05:10:50;;;;;;;1.33;1.23;;;7.20;99.90;;;;;;4879247;29;20687;-82
2022/09/07 05:13:16;;;;;;;2.07;1.40;;;;;;;;;;4878301;29;20246;-82
2022/09/07 05:15:42;;;;;;;5.17;1.97;;;;;;;;;;4877788;29;20202;-82
2022/09/07 05:18:08;;;;;;;1.90;1.80;;;;;;;;;;4879140;29;20668;-81
2022/09/07 05:20:34;;;;;;;1.97;1.50;;;;;;;;;;4878168;29;20186;-81
2022/09/07 05:23:00;;;;;;;5.17;2.23;;;7.90;99.90;;;;;;4877525;29;20312;-81
2022/09/07 05:25:27;;;;;;;5.87;2.73;;;7.90;99.90;;;;;;4878761;29;20221;-82
2022/09/07 05:27:54;;;;;;;2.83;2.23;;;;;;;;;;4876593;29;20186;-82
2022/09/07 05:30:20;;;;;;;1.40;1.37;;;;;;;;;;4877804;29;20217;-82
2022/09/07 05:32:46;;;;;;;6.30;3.00;;;;;;;;;;4878285;29;20196;-82
2022/09/07 05:35:13;;;;;;;7.27;2.47;;;;;;;;;;4878206;29;20185;-82
2022/09/07 05:37:39;;;;;;;3.57;1.87;;;;;;;;;;4876835;29;20324;-81
2022/09/07 05:40:06;;;;;;;1.67;1.57;;;8.40;99.90;;;;;;4875327;29;20216;-82
2022/09/07 05:42:31;;;;;;;4.33;2.13;;;;;;;;;;4877244;29;20269;-82
2022/09/07 05:44:57;;;;;;;1.43;1.33;;;;;;;;;;4875079;29;20273;-81
2022/09/07 05:47:23;;;;;;;2.37;2.20;;;;;;;;;;4875957;29;20197;-81
2022/09/07 05:49:49;;;;;;;1.77;1.63;;;;;;;;;;4877490;29;20226;-81
2022/09/07 05:52:15;;;;;;;4.17;2.50;;;;;;;;;;4876488;29;20272;-81
2022/09/07 05:54:41;;;;;;;1.97;1.83;;;;;;;;;;4876239;29;20194;-81
2022/09/07 05:57:10;;;;;;;3.70;2.60;;;9.40;99.90;;;;;;4876490;29;20244;-82
2022/09/07 05:59:36;;;;;;;5.50;1.77;;;;;;;;;;4877508;29;20655;-82
2022/09/07 06:02:02;;;;;;;4.77;2.43;;;9.40;99.90;;;;;;4877108;29;20193;-81
2022/09/07 06:04:28;;;;;;;2.97;1.97;;;;;;;;;;4877263;29;20194;-81
2022/09/07 06:06:54;;;;;;;2.30;2.20;;;;;;;;;;4877559;29;20186;-81
2022/09/07 06:09:20;;;;;;;4.70;2.50;;;;;;;;;;4875082;29;20274;-78
2022/09/07 06:11:46;;;;;;;4.43;2.20;;;;;;;;;;4876451;29;20182;-80
2022/09/07 06:14:12;;;;;;;2.47;1.50;;;;;;;;;;4876748;29;20205;-82
2022/09/07 06:16:37;;;;;;;2.93;1.77;;;10.80;99.90;;;;;;4874708;29;20716;-80
2022/09/07 06:19:05;;;;;;;5.07;2.40;;;10.80;99.90;;;;;;4859595;29;20193;-81
2022/09/07 06:21:37;;;;;;;1.33;1.23;;;11.10;99.90;;;;;;4876471;29;20190;-81
2022/09/07 06:24:04;;;;;;;1.30;0.95;;;10.90;99.90;;;;;;4878117;29;20178;-81
2022/09/07 06:26:30;;;;;;;2.08;1.90;;;11.00;99.90;;;;;;4877995;29;20980;-81
2022/09/07 06:28:55;;;;;;;1.98;1.80;;;11.90;99.90;;;;;;4878527;29;20182;-81
2022/09/07 06:31:22;;;;;;;5.10;2.40;;;11.70;99.90;;;;;;4876817;29;20685;-80
2022/09/07 06:33:49;;;;;;;1.92;1.42;;;12.00;99.90;;;;;;4878659;29;20265;-82
2022/09/07 06:36:20;;;;;;;2.13;1.55;;;12.30;99.90;;;;;;4879413;29;20190;-82
2022/09/07 06:38:47;;;;;;;2.05;1.55;;;12.40;99.90;;;;;;4882003;29;20194;-81
2022/09/07 06:41:21;;;;;;;1.45;1.23;;;12.30;99.90;;;;;;4881938;29;20186;-82
2022/09/07 06:43:47;;;;;;;1.55;1.17;;;13.00;99.90;;;;;;4882104;29;20253;-81
2022/09/07 06:46:13;;;;;;;1.92;1.55;;;12.80;99.90;;;;;;4881605;29;20241;-83
2022/09/07 06:48:39;;;;;;;2.50;1.80;;;;;;;;;;4880774;29;20662;-81
2022/09/07 06:51:14;;;;;;;3.42;1.70;;;13.10;99.90;;;;;;4880542;29;20217;-81
2022/09/07 06:53:39;;;;;;;1.55;1.30;;;13.10;99.90;;;;;;4881918;29;20186;-80
2022/09/07 06:56:17;;;;;;;3.10;1.08;;;13.40;99.90;;;;;;4881619;29;20189;-80
2022/09/07 06:58:42;;;;;;;1.60;1.08;;;13.90;99.90;;;;;;4881790;29;20334;-80
2022/09/07 07:01:12;;;;;;;0.98;0.98;;;13.30;99.90;;;;;;4881416;29;20710;-80
2022/09/07 07:03:38;;;;;;;0.88;0.82;;;;;;;;;;4881161;29;20656;-81
2022/09/07 07:06:04;;;;;;;3.53;1.15;;;13.80;99.90;;;;;;4881545;29;20556;-82
2022/09/07 07:08:30;;;;;;;0.88;0.88;;;;;;;;;;4881171;29;20182;-81
2022/09/07 07:11:01;;;;;;;1.38;1.15;;;14.30;99.90;;;;;;4881287;29;20214;-81
2022/09/07 07:13:27;;;;;;;1.33;1.13;;;14.40;99.90;;;;;;4881177;29;20186;-82
2022/09/07 07:15:53;;;;;;;1.30;0.70;;;;;;;;;;4879985;29;20192;-81
2022/09/07 07:18:18;;;;;;;1.05;0.90;;;14.50;99.90;;;;;;4863829;29;20225;-81
2022/09/07 07:20:44;;;;;;;3.63;1.15;;;;;;;;;;4881340;29;20218;-80
2022/09/07 07:23:11;;;;;;;1.08;0.88;;;14.90;99.90;;;;;;4880566;29;20193;-83
2022/09/07 07:25:37;;;;;;;0.98;0.85;;;;;;;;;;4880610;29;20190;-81
2022/09/07 07:28:03;;;;;;;9.35;1.20;;;15.40;99.90;;;;;;4880851;29;20261;-81
2022/09/07 07:30:29;;;;;;;1.23;1.13;;;15.30;99.90;;;;;;4880018;29;20210;-81
2022/09/07 07:32:56;;;;;;;2.22;1.10;;;15.20;94.30;;;;;;4881117;29;20269;-83
2022/09/07 07:35:22;;;;;;;4.70;1.02;;;14.90;99.90;;;;;;4880526;29;20636;-83
2022/09/07 07:37:53;;;;;;;1.80;1.40;;;15.30;93.20;;;;;;4881031;29;20188;-82
2022/09/07 07:40:19;;;;;;;1.73;1.02;;;15.20;99.90;;;;;;4880625;29;20193;-82
2022/09/07 07:42:45;;;;;;;2.33;1.27;;;15.30;99.90;;;;;;4880811;29;20182;-81
2022/09/07 07:45:11;;;;;;;1.40;1.30;;;;;;;;;;4880615;29;20189;-81
2022/09/07 07:47:37;;;;;;;2.15;1.63;;;15.60;99.90;;;;;;4880299;29;20201;-81
2022/09/07 07:50:05;;;;;;;1.77;1.17;;;15.80;89.50;;;;;;4879786;29;20683;-81
2022/09/07 07:52:39;;;;;;;2.65;1.13;;;15.60;98.80;;;;;;4880353;29;20667;-81
2022/09/07 07:55:05;;;;;;;1.60;1.40;;;16.40;99.90;;;;;;4880613;29;20189;-82
2022/09/07 07:57:31;;;;;;;1.42;1.17;;;16.20;99.90;;;;;;4880169;29;20261;-82
2022/09/07 07:59:57;;;;;;;1.35;0.95;;;15.60;98.60;;;;;;4880866;29;20186;-82
2022/09/07 08:02:23;;;;;;;1.40;1.25;;;;;;;;;;4863723;29;20201;-82
2022/09/07 08:04:49;;;;;;;1.10;1.00;;;16.00;98.70;;;;;;4880517;29;20709;-81
2022/09/07 08:07:16;;;;;;;3.35;1.30;;;;;;;;;;4880544;29;20186;-81
2022/09/07 08:09:44;;;;;;;2.75;1.73;;;16.40;96.10;;;;;;4878872;29;20417;-81
2022/09/07 08:12:12;;;;;;;2.47;1.50;;;16.20;83.30;;;;;;4880512;29;20221;-81
2022/09/07 08:14:39;;;;;;;1.65;0.90;;;16.60;96.40;;;;;;4880252;29;20185;-82
2022/09/07 08:17:06;;;;;;;1.80;1.10;;;16.30;83.40;;;;;;4879197;29;20182;-81
2022/09/07 08:19:32;;;;;;;1.80;1.38;;;16.30;95.20;;;;;;4879811;29;20527;-81
2022/09/07 08:21:58;;;;;;;3.33;1.85;;;;;;;;;;4878813;29;20242;-83
2022/09/07 08:24:24;;;;;;;0.77;0.70;;;;;;;;;;4880250;29;20237;-85
2022/09/07 08:26:50;;;;;;;1.40;1.30;;;17.10;95.70;;;;;;4880133;29;20182;-82
2022/09/07 08:29:16;;;;;;;1.77;1.35;;;;;;;;;;4884500;29;20261;-82
2022/09/07 08:31:43;;;;;;;2.47;1.33;;;16.30;94.70;;;;;;4883728;29;20190;-82
2022/09/07 08:34:08;;;;;;;1.67;1.20;;;16.80;92.50;;;;;;4887161;29;20190;-81
2022/09/07 08:36:34;;;;;;;1.88;1.10;;;;;;;;;;4884485;29;20351;-81
2022/09/07 08:39:00;;;;;;;1.13;0.95;;;;;;;;;;4881400;29;20190;-82
2022/09/07 08:41:51;;;;;;;1.20;1.00;;;16.90;74.30;;;;;;4879613;29;20644;-84
2022/09/07 08:44:28;;;;;;;2.78;1.33;;;16.80;91.40;;;;;;4879228;29;20186;-82
2022/09/07 08:47:15;;;;;;;1.77;0.95;;;17.10;75.50;;;;;;4878622;29;20628;-85
2022/09/07 08:49:51;;;;;;;2.22;1.10;;;17.00;90.00;;;;;;4879387;29;20205;-82
2022/09/07 08:52:38;;;;;;;1.55;0.93;;;17.20;72.60;;;;;;4879776;29;20260;-84
2022/09/07 08:55:17;;;;;;;2.45;1.15;;;17.50;86.00;;;;;;4879013;29;20203;-83
2022/09/07 08:57:52;;;;;;;2.45;1.23;;;17.60;73.20;;;;;;4878453;29;20232;-82
2022/09/07 09:00:18;;;;;;;0.95;0.90;;;17.30;87.20;;;;;;4878538;29;20185;-80
2022/09/07 09:02:44;;;;;;;1.58;1.30;;;;;;;;;;4878166;29;20662;-82
2022/09/07 09:05:42;;;;;;;1.23;0.88;;;17.80;84.10;;;;;;4879579;29;20189;-81
2022/09/07 09:08:31;;;;;;;0.75;0.75;;;17.30;82.80;;;;;;4879687;29;20170;-82
2022/09/07 09:10:57;;;;;;;1.80;0.93;;;17.70;68.50;;;;;;4879442;29;20266;-81
2022/09/07 09:13:46;;;;;;;1.80;0.80;;;17.80;67.60;;;;;;4877654;29;20596;-81
2022/09/07 09:16:29;;;;;;;2.97;1.40;;;17.70;81.30;;;;;;4879319;29;20182;-81
2022/09/07 09:19:01;;;;;;;1.35;1.25;;;18.10;82.20;;;;;;4878922;29;20213;-81
2022/09/07 09:21:27;;;;;;;1.25;1.15;;;18.10;82.70;;;;;;4878146;29;20192;-81
2022/09/07 09:23:59;;;;;;;1.20;0.90;;;18.00;68.50;;;;;;4878083;29;20269;-81
2022/09/07 09:26:27;;;;;;;1.05;0.95;;;18.10;69.30;;;;;;4879854;29;20176;-81
2022/09/07 09:28:53;;;;;;;1.38;1.20;;;18.30;70.60;;;;;;4877737;29;20281;-82
2022/09/07 09:31:30;;;;;;;3.58;1.20;;;18.40;82.20;;;;;;4862477;29;20695;-81
2022/09/07 09:34:08;;;;;;;2.40;1.10;;;18.30;81.60;;;;;;4878287;29;20232;-81
2022/09/07 09:36:43;;;;;;;3.85;2.00;;;18.50;83.30;;;;;;4879029;29;20174;-81
2022/09/07 09:39:29;;;;;;;2.22;1.30;;;18.10;76.60;;;;;;4878105;29;20649;-82
2022/09/07 09:41:57;;;;;;;3.03;1.48;;;18.40;69.20;;;;;;4878916;29;20178;-81
2022/09/07 09:44:26;;;;;;;1.63;1.20;;;18.40;67.60;;;;;;4878154;29;20182;-81
2022/09/07 09:46:53;;;;;;;1.73;1.00;;;18.80;81.60;;;;;;4878013;29;20186;-83
2022/09/07 09:49:25;;;;;;;1.38;1.02;;;18.60;83.00;;;;;;4878068;29;20178;-82
2022/09/07 09:51:54;;;;;;;4.95;1.02;;;19.20;81.40;;;;;;4878754;29;20185;-82
2022/09/07 09:54:24;;;;;;;4.18;1.73;;;18.70;82.80;;;;;;4878943;29;20209;-82
2022/09/07 09:56:51;;;;;;;3.60;1.20;;;19.20;83.30;;;;;;4879052;29;20234;-82
2022/09/07 09:59:16;;;;;;;3.78;2.00;;;;;;;;;;4877889;29;20186;-82
2022/09/07 10:01:46;;;;;;;1.95;1.40;;;18.90;81.20;;;;;;4877062;29;20186;-81
2022/09/07 10:04:30;;;;;;;2.50;1.20;;;18.80;80.10;;;;;;4879012;29;20214;-80
2022/09/07 10:07:06;;;;;;;1.90;1.30;;;18.90;83.10;;;;;;4878476;29;20189;-80
2022/09/07 10:09:38;;;;;;;3.42;1.23;;;19.50;82.90;;;;;;4878921;29;20206;-81
2022/09/07 10:12:06;;;;;;;2.53;1.05;;;19.40;62.50;;;;;;4882652;29;20193;-80
2022/09/07 10:14:43;;;;;;;1.38;0.80;;;19.40;64.60;;;;;;4882363;29;20576;-82
2022/09/07 10:17:30;;;;;;;1.65;0.93;;;19.80;79.20;;;;;;4882364;29;20170;-81
2022/09/07 10:20:19;;;;;;;1.05;0.90;;;19.90;62.60;;;;;;4881981;29;20694;-83
2022/09/07 10:22:50;;;;;;;3.35;1.13;;;20.80;78.70;;;;;;4880849;29;20186;-82
2022/09/07 10:25:27;;;;;;;2.00;1.30;;;20.30;75.50;;;;;;4882408;29;20226;-82
2022/09/07 10:28:14;;;;;;;2.15;1.10;;;20.10;74.10;;;;;;4882046;29;20182;-80
2022/09/07 10:30:40;;;;;;;2.78;1.40;;;;;;;;;;4881782;29;20209;-82
2022/09/07 10:33:33;;;;;;;1.13;0.80;;;20.40;59.00;;;;;;4882361;29;20639;-81
2022/09/07 10:36:14;;;;;;;1.02;0.88;;;20.40;59.10;;;;;;4881816;29;20261;-81
2022/09/07 10:38:55;;;;;;;1.35;0.95;;;19.80;74.90;;;;;;4880857;29;20205;-82
2022/09/07 10:41:32;;;;;;;4.10;1.70;;;20.20;58.80;;;;;;4880845;29;20276;-81
2022/09/07 10:43:59;;;;;;;2.53;1.55;;;20.40;57.90;;;;;;4881643;29;20182;-81
2022/09/07 10:46:56;;;;;;;3.80;1.23;;;20.80;75.70;;;;;;4882320;29;20182;-82
2022/09/07 10:49:29;;;;;;;3.42;1.40;;;20.40;57.60;;;;;;4881105;29;20530;-84
2022/09/07 10:52:01;;;;;;;3.65;1.30;;;20.70;74.10;;;;;;4880877;29;20193;-82
2022/09/07 10:54:49;;;;;;;2.60;1.40;;;21.10;76.50;;;;;;4880482;29;20189;-86
2022/09/07 10:57:25;;;;;;;1.42;1.30;;;20.70;71.60;;;;;;4880482;29;20229;-83
2022/09/07 11:00:11;;;;;;;1.90;1.00;;;21.80;73.00;;;;;;4880346;29;20726;-83
2022/09/07 11:02:58;;;;;;;2.25;1.17;;;21.50;69.50;;;;;;4881977;29;20170;-81
2022/09/07 11:05:46;;;;;;;2.03;1.00;;;21.00;71.90;;;;;;4879730;29;20256;-84
2022/09/07 11:08:17;;;;;;;1.25;1.00;;;21.50;73.30;;;;;;4881694;29;20230;-83
2022/09/07 11:10:54;;;;;;;2.10;1.48;;;20.80;71.80;;;;;;4881206;29;20210;-83
2022/09/07 11:13:26;;;;;;;2.22;1.05;;;24.20;75.80;;;;;;4883122;29;20201;-82
2022/09/07 11:15:58;;;;;;;0.95;0.75;;;21.10;56.60;;;;;;4881078;29;20178;-82
2022/09/07 11:18:38;;;;;;;0.98;0.85;;;21.10;71.90;;;;;;4879068;29;20719;-85
2022/09/07 11:21:16;;;;;;;7.93;1.55;;;21.00;55.50;;;;;;4880474;29;20216;-82
2022/09/07 11:23:42;;;;;;;2.00;1.42;;;;;;;;;;4880361;29;20707;-82
2022/09/07 11:26:34;;;;;;;1.55;1.38;;;20.80;69.80;;;;;;4881003;29;20178;-82
2022/09/07 11:29:10;;;;;;;2.65;1.35;;;20.50;69.80;;;;;;4883054;29;20236;-82
2022/09/07 11:31:51;;;;;;;2.13;1.38;;;21.10;68.40;;;;;;4882837;29;20197;-82
2022/09/07 11:34:25;;;;;;;2.53;1.20;;;21.20;67.90;;;;;;4881044;29;20174;-82
2022/09/07 11:36:51;;;;;;;2.63;1.30;;;;;;;;;;4880696;29;20726;-82
2022/09/07 11:39:25;;;;;;;1.48;1.15;;;20.80;53.00;;;;;;4880219;29;20190;-82
2022/09/07 11:42:03;;;;;;;2.45;1.02;;;20.40;53.10;;;;;;4878339;29;20230;-82
2022/09/07 11:44:46;;;;;;;4.05;1.15;;;20.20;70.60;;;;;;4878941;29;20178;-83
2022/09/07 11:47:40;;;;;;;1.92;1.23;;;19.70;70.30;;;;;;4879523;29;20230;-81
2022/09/07 11:50:16;;;;;;;5.55;2.50;;;19.90;70.20;;;;;;4869682;29;20332;-82
2022/09/07 11:53:05;;;;;;;3.67;1.35;;;20.30;55.20;;;;;;4876061;29;20184;-82
2022/09/07 11:55:37;;;;;;;2.58;1.83;;;20.10;72.20;;;;;;4878360;29;20276;-82
2022/09/07 11:58:26;;;;;;;1.15;0.90;;;20.30;72.60;;;;;;4879970;29;20229;-81
2022/09/07 12:01:13;;;;;;;2.03;1.48;;;20.10;69.70;;;;;;4880589;29;20174;-81
2022/09/07 12:04:10;;;;;;;2.95;1.30;;;20.40;70.30;;;;;;4879303;29;20201;-84
2022/09/07 12:06:49;;;;;;;1.20;1.02;;;20.40;71.90;;;;;;4881511;29;20551;-83
2022/09/07 12:09:28;;;;;;;2.20;1.48;;;21.10;72.30;;;;;;4883279;29;20185;-84
2022/09/07 12:11:54;;;;;;;1.70;1.10;;;;;;;;;;4879631;29;20190;-84
2022/09/07 12:14:25;;;;;;;3.00;1.33;;;21.00;70.10;;;;;;4880370;29;20276;-84
2022/09/07 12:17:25;;;;;;;2.28;1.13;;;20.50;70.10;;;;;;4880097;29;20174;-85
2022/09/07 12:20:19;;;;;;;1.70;1.25;;;20.60;60.30;;;;;;4878703;29;20249;-85
2022/09/07 12:22:55;;;;;;;2.72;1.52;;;20.00;69.70;;;;;;4879177;29;20238;-85
2022/09/07 12:25:21;;;;;;;2.25;1.25;;;;;;;;;;4878954;29;20178;-84
2022/09/07 12:27:48;;;;;;;1.42;1.33;;;;;;;;;;4863791;29;20201;-84
2022/09/07 12:30:14;;;;;;;2.28;1.05;;;;;;;;;;4879482;29;20245;-84
2022/09/07 12:32:45;;;;;;;1.75;1.10;;;21.30;70.80;;;;;;4877230;29;20701;-84
2022/09/07 12:35:32;;;;;;;1.23;0.85;;;21.10;63.00;;;;;;4878988;29;20269;-84
2022/09/07 12:38:04;;;;;;;1.23;1.00;;;21.10;52.90;;;;;;4877702;29;20193;-83
2022/09/07 12:40:32;;;;;;;1.23;1.05;;;;;;;;;;4878795;29;20200;-85
2022/09/07 12:43:12;;;;;;;2.97;1.25;;;21.40;68.60;;;;;;4877473;29;20186;-85
2022/09/07 12:45:38;;;;;;;2.35;1.10;;;;;;;;;;4878819;29;20182;-86
2022/09/07 12:48:04;;;;;;;2.30;1.45;;;21.90;67.10;;;;;;4878449;29;20190;-84
2022/09/07 12:50:48;;;;;;;3.60;1.15;;;22.50;68.20;;;;;;4879171;29;20236;-83
2022/09/07 12:53:29;;;;;;;1.55;1.15;;;23.00;67.70;;;;;;4878704;29;20663;-87
2022/09/07 12:56:09;;;;;;;4.10;1.38;;;22.70;50.90;;;;;;4879200;29;20194;-87
2022/09/07 12:59:19;;;;;;;1.65;1.05;;;22.70;51.20;;;;;;4878142;29;20256;-84
2022/09/07 13:02:02;;;;;;;1.95;1.30;;;22.60;62.60;;;;;;4877344;29;20196;-83
2022/09/07 13:04:49;;;;;;;2.00;1.15;;;22.90;62.00;;;;;;4877309;29;20182;-85
2022/09/07 13:08:06;;;;;;;1.58;1.02;;;22.80;63.50;;;;;;4877102;29;20510;-86
2022/09/07 13:10:37;;;;;;;3.28;2.03;;;23.10;48.20;;;;;;4819613;29;20212;-86
2022/09/07 13:13:13;;;;;;;23.20;2.45;;;23.80;60.70;;;;;;4867393;29;20197;-86
2022/09/07 13:15:51;;;;;;;1.63;1.13;;;23.80;58.80;;;;;;4878024;29;20193;-84
2022/09/07 13:18:28;;;;;;;1.40;1.13;;;23.90;46.60;;;;;;4877478;29;20648;-85
2022/09/07 13:21:06;;;;;;;1.50;1.00;;;24.00;47.00;;;;;;4880339;29;20267;-83
2022/09/07 13:23:33;;;;;;;1.90;1.00;;;23.90;46.40;;;;;;4880261;29;20213;-84
2022/09/07 13:26:00;;;;;;;3.72;1.05;;;23.90;47.80;;;;;;4877991;29;20186;-85
2022/09/07 13:28:54;;;;;;;2.17;1.15;;;24.50;59.00;;;;;;4879420;29;20174;-83
2022/09/07 13:31:35;;;;;;;1.83;0.90;;;24.10;47.40;;;;;;4870296;29;20272;-84
2022/09/07 13:34:32;;;;;;;2.33;1.45;;;24.20;57.50;;;;;;4879054;29;20659;-84
2022/09/07 13:37:11;;;;;;;1.75;1.13;;;24.10;45.30;;;;;;4878458;29;20192;-86
2022/09/07 13:39:42;;;;;;;4.07;2.03;;;23.60;57.30;;;;;;4877993;29;20209;-85
2022/09/07 13:42:16;;;;;;;1.95;1.13;;;23.30;57.70;;;;;;4874400;29;20190;-84
2022/09/07 13:44:41;;;;;;;1.60;1.33;;;23.90;57.50;;;;;;4879851;29;20189;-84
2022/09/07 13:47:19;;;;;;;2.03;1.17;;;23.20;56.80;;;;;;4864670;29;20244;-84
2022/09/07 13:50:12;;;;;;;1.55;0.90;;;24.00;58.70;;;;;;4880875;29;20682;-84